sensor_id;sensor_type;location;lat;lon;timestamp;temperature;humidity
13798;DHT22;6970;51.340;3.240;2022-12-07T00:01:14;8.10;99.90
13798;DHT22;6970;51.340;3.240;2022-12-07T00:03:42;8.10;99.90
13798;DHT22;6970;51.340;3.240;2022-12-07T00:06:12;8.20;99.90
13798;DHT22;6970;51.340;3.240;2022-12-07T00:08:39;8.20;99.90
13798;DHT22;6970;51.340;3.240;2022-12-07T00:11:11;8.30;99.90
13798;DHT22;6970;51.340;3.240;2022-12-07T00:13:39;8.20;99.90
13798;DHT22;6970;51.340;3.240;2022-12-07T00:16:15;8.20;99.90
13798;DHT22;6970;51.340;3.240;2022-12-07T00:18:44;8.10;99.90
13798;DHT22;6970;51.340;3.240;2022-12-07T00:21:17;8.10;99.90
13798;DHT22;6970;51.340;3.240;2022-12-07T00:23:45;8.10;99.90
13798;DHT22;6970;51.340;3.240;2022-12-07T00:26:16;8.10;99.90
13798;DHT22;6970;51.340;3.240;2022-12-07T00:28:51;8.10;99.90
13798;DHT22;6970;51.340;3.240;2022-12-07T00:31:20;8.10;99.90
13798;DHT22;6970;51.340;3.240;2022-12-07T00:33:48;8.10;99.90
13798;DHT22;6970;51.340;3.240;2022-12-07T00:36:18;8.00;99.90
13798;DHT22;6970;51.340;3.240;2022-12-07T00:38:57;8.00;99.90
13798;DHT22;6970;51.340;3.240;2022-12-07T00:41:25;8.00;99.90
13798;DHT22;6970;51.340;3.240;2022-12-07T00:43:53;8.00;99.90
13798;DHT22;6970;51.340;3.240;2022-12-07T00:46:21;8.00;99.90
13798;DHT22;6970;51.340;3.240;2022-12-07T00:48:49;8.00;99.90
13798;DHT22;6970;51.340;3.240;2022-12-07T00:51:19;8.10;99.90
13798;DHT22;6970;51.340;3.240;2022-12-07T00:53:46;8.10;99.90
13798;DHT22;6970;51.340;3.240;2022-12-07T00:56:19;8.10;99.90
13798;DHT22;6970;51.340;3.240;2022-12-07T00:58:58;8.10;99.90
13798;DHT22;6970;51.340;3.240;2022-12-07T01:01:28;8.20;99.90
13798;DHT22;6970;51.340;3.240;2022-12-07T01:03:55;8.20;99.90
13798;DHT22;6970;51.340;3.240;2022-12-07T01:06:23;8.20;99.90
13798;DHT22;6970;51.340;3.240;2022-12-07T01:08:50;8.20;99.90
13798;DHT22;6970;51.340;3.240;2022-12-07T01:11:22;8.20;99.90
13798;DHT22;6970;51.340;3.240;2022-12-07T01:13:53;8.20;99.90
13798;DHT22;6970;51.340;3.240;2022-12-07T01:16:21;8.20;99.90
13798;DHT22;6970;51.340;3.240;2022-12-07T01:18:50;8.20;99.90
13798;DHT22;6970;51.340;3.240;2022-12-07T01:21:24;8.30;99.90
13798;DHT22;6970;51.340;3.240;2022-12-07T01:23:51;8.20;99.90
13798;DHT22;6970;51.340;3.240;2022-12-07T01:26:21;8.30;99.90
13798;DHT22;6970;51.340;3.240;2022-12-07T01:28:49;8.20;99.90
13798;DHT22;6970;51.340;3.240;2022-12-07T01:31:19;8.20;99.90
13798;DHT22;6970;51.340;3.240;2022-12-07T01:33:49;8.20;99.90
13798;DHT22;6970;51.340;3.240;2022-12-07T01:36:31;8.20;99.90
13798;DHT22;6970;51.340;3.240;2022-12-07T01:39:01;8.20;99.90
13798;DHT22;6970;51.340;3.240;2022-12-07T01:41:32;8.20;99.90
13798;DHT22;6970;51.340;3.240;2022-12-07T01:44:16;8.20;99.90
13798;DHT22;6970;51.340;3.240;2022-12-07T01:46:55;8.20;99.90
13798;DHT22;6970;51.340;3.240;2022-12-07T01:49:24;8.20;99.90
13798;DHT22;6970;51.340;3.240;2022-12-07T01:52:39;8.20;99.90
13798;DHT22;6970;51.340;3.240;2022-12-07T01:54:51;8.30;99.90
13798;DHT22;6970;51.340;3.240;2022-12-07T01:57:19;8.30;99.90
13798;DHT22;6970;51.340;3.240;2022-12-07T01:59:48;8.30;99.90
13798;DHT22;6970;51.340;3.240;2022-12-07T02:02:35;8.40;99.90
13798;DHT22;6970;51.340;3.240;2022-12-07T02:05:04;8.40;99.90
13798;DHT22;6970;51.340;3.240;2022-12-07T02:07:34;8.40;99.90
13798;DHT22;6970;51.340;3.240;2022-12-07T02:10:15;8.40;99.90
13798;DHT22;6970;51.340;3.240;2022-12-07T02:12:43;8.40;99.90
13798;DHT22;6970;51.340;3.240;2022-12-07T02:15:11;8.30;99.90
13798;DHT22;6970;51.340;3.240;2022-12-07T02:17:50;8.30;99.90
13798;DHT22;6970;51.340;3.240;2022-12-07T02:23:38;8.20;99.90
13798;DHT22;6970;51.340;3.240;2022-12-07T02:31:32;8.30;99.90
13798;DHT22;6970;51.340;3.240;2022-12-07T02:34:18;8.30;99.90
13798;DHT22;6970;51.340;3.240;2022-12-07T02:36:52;8.40;99.90
13798;DHT22;6970;51.340;3.240;2022-12-07T02:39:34;8.40;99.90
13798;DHT22;6970;51.340;3.240;2022-12-07T02:42:12;8.30;99.90
13798;DHT22;6970;51.340;3.240;2022-12-07T02:44:41;8.30;99.90
13798;DHT22;6970;51.340;3.240;2022-12-07T02:47:11;8.30;99.90
13798;DHT22;6970;51.340;3.240;2022-12-07T02:49:40;8.20;99.90
13798;DHT22;6970;51.340;3.240;2022-12-07T02:52:07;8.20;99.90
13798;DHT22;6970;51.340;3.240;2022-12-07T02:54:35;8.20;99.90
13798;DHT22;6970;51.340;3.240;2022-12-07T02:59:59;8.30;99.90
13798;DHT22;6970;51.340;3.240;2022-12-07T03:05:18;8.30;99.90
13798;DHT22;6970;51.340;3.240;2022-12-07T03:10:55;8.30;99.90
13798;DHT22;6970;51.340;3.240;2022-12-07T03:16:27;8.20;99.90
13798;DHT22;6970;51.340;3.240;2022-12-07T03:19:06;8.20;99.90
13798;DHT22;6970;51.340;3.240;2022-12-07T03:21:38;8.20;99.90
13798;DHT22;6970;51.340;3.240;2022-12-07T03:24:13;8.30;99.90
13798;DHT22;6970;51.340;3.240;2022-12-07T03:26:51;8.20;99.90
13798;DHT22;6970;51.340;3.240;2022-12-07T03:29:33;8.30;99.90
13798;DHT22;6970;51.340;3.240;2022-12-07T03:32:06;8.30;99.90
13798;DHT22;6970;51.340;3.240;2022-12-07T03:35:05;8.20;99.90
13798;DHT22;6970;51.340;3.240;2022-12-07T03:37:41;8.20;99.90
13798;DHT22;6970;51.340;3.240;2022-12-07T03:40:21;8.10;99.90
13798;DHT22;6970;51.340;3.240;2022-12-07T03:42:50;8.10;99.90
13798;DHT22;6970;51.340;3.240;2022-12-07T03:45:23;8.10;99.90
13798;DHT22;6970;51.340;3.240;2022-12-07T03:48:05;8.10;99.90
13798;DHT22;6970;51.340;3.240;2022-12-07T03:55:42;8.10;99.90
13798;DHT22;6970;51.340;3.240;2022-12-07T03:58:14;8.10;99.90
13798;DHT22;6970;51.340;3.240;2022-12-07T04:00:42;8.10;99.90
13798;DHT22;6970;51.340;3.240;2022-12-07T04:03:10;8.10;99.90
13798;DHT22;6970;51.340;3.240;2022-12-07T04:05:38;8.20;99.90
13798;DHT22;6970;51.340;3.240;2022-12-07T04:08:05;8.20;99.90
13798;DHT22;6970;51.340;3.240;2022-12-07T04:10:33;8.20;99.90
13798;DHT22;6970;51.340;3.240;2022-12-07T04:12:59;8.20;99.90
13798;DHT22;6970;51.340;3.240;2022-12-07T04:15:27;8.30;99.90
13798;DHT22;6970;51.340;3.240;2022-12-07T04:17:54;8.30;99.90
13798;DHT22;6970;51.340;3.240;2022-12-07T04:20:21;8.30;99.90
13798;DHT22;6970;51.340;3.240;2022-12-07T04:22:48;8.30;99.90
13798;DHT22;6970;51.340;3.240;2022-12-07T04:25:15;8.40;99.90
13798;DHT22;6970;51.340;3.240;2022-12-07T04:27:42;8.40;99.90
13798;DHT22;6970;51.340;3.240;2022-12-07T04:30:10;8.40;99.90
13798;DHT22;6970;51.340;3.240;2022-12-07T04:32:37;8.40;99.90
13798;DHT22;6970;51.340;3.240;2022-12-07T04:35:04;8.30;99.90
13798;DHT22;6970;51.340;3.240;2022-12-07T04:37:31;8.40;99.90
13798;DHT22;6970;51.340;3.240;2022-12-07T04:39:58;8.40;99.90
13798;DHT22;6970;51.340;3.240;2022-12-07T04:42:26;8.30;99.90
13798;DHT22;6970;51.340;3.240;2022-12-07T04:44:53;8.30;99.90
13798;DHT22;6970;51.340;3.240;2022-12-07T04:47:20;8.30;99.90
13798;DHT22;6970;51.340;3.240;2022-12-07T04:49:47;8.20;99.90
13798;DHT22;6970;51.340;3.240;2022-12-07T04:52:14;8.20;99.90
13798;DHT22;6970;51.340;3.240;2022-12-07T04:54:41;8.20;99.90
13798;DHT22;6970;51.340;3.240;2022-12-07T04:57:07;8.10;99.90
13798;DHT22;6970;51.340;3.240;2022-12-07T04:59:34;8.10;99.90
13798;DHT22;6970;51.340;3.240;2022-12-07T05:02:07;8.10;99.90
13798;DHT22;6970;51.340;3.240;2022-12-07T05:04:34;8.10;99.90
13798;DHT22;6970;51.340;3.240;2022-12-07T05:07:01;8.10;99.90
13798;DHT22;6970;51.340;3.240;2022-12-07T05:09:28;8.10;99.90
13798;DHT22;6970;51.340;3.240;2022-12-07T05:11:56;8.10;99.90
13798;DHT22;6970;51.340;3.240;2022-12-07T05:14:23;8.00;99.90
13798;DHT22;6970;51.340;3.240;2022-12-07T05:16:51;8.00;99.90
13798;DHT22;6970;51.340;3.240;2022-12-07T05:19:19;8.00;99.90
13798;DHT22;6970;51.340;3.240;2022-12-07T05:21:46;8.10;99.90
13798;DHT22;6970;51.340;3.240;2022-12-07T05:24:14;8.00;99.90
13798;DHT22;6970;51.340;3.240;2022-12-07T05:26:43;8.00;99.90
13798;DHT22;6970;51.340;3.240;2022-12-07T05:29:13;8.00;99.90
13798;DHT22;6970;51.340;3.240;2022-12-07T05:31:41;8.00;99.90
13798;DHT22;6970;51.340;3.240;2022-12-07T05:34:09;8.00;99.90
13798;DHT22;6970;51.340;3.240;2022-12-07T05:36:36;8.00;99.90
13798;DHT22;6970;51.340;3.240;2022-12-07T05:39:03;8.00;99.90
13798;DHT22;6970;51.340;3.240;2022-12-07T05:41:30;8.00;99.90
13798;DHT22;6970;51.340;3.240;2022-12-07T05:44:15;8.00;99.90
13798;DHT22;6970;51.340;3.240;2022-12-07T05:46:42;7.90;99.90
13798;DHT22;6970;51.340;3.240;2022-12-07T05:49:09;7.90;99.90
13798;DHT22;6970;51.340;3.240;2022-12-07T05:51:36;8.00;99.90
13798;DHT22;6970;51.340;3.240;2022-12-07T05:54:03;8.00;99.90
13798;DHT22;6970;51.340;3.240;2022-12-07T05:56:30;8.00;99.90
13798;DHT22;6970;51.340;3.240;2022-12-07T05:58:57;8.00;99.90
13798;DHT22;6970;51.340;3.240;2022-12-07T06:01:43;8.00;99.90
13798;DHT22;6970;51.340;3.240;2022-12-07T06:04:10;8.00;99.90
13798;DHT22;6970;51.340;3.240;2022-12-07T06:06:37;8.00;99.90
13798;DHT22;6970;51.340;3.240;2022-12-07T06:09:06;8.00;99.90
13798;DHT22;6970;51.340;3.240;2022-12-07T06:11:34;8.00;99.90
13798;DHT22;6970;51.340;3.240;2022-12-07T06:14:22;8.00;99.90
13798;DHT22;6970;51.340;3.240;2022-12-07T06:16:49;8.00;99.90
13798;DHT22;6970;51.340;3.240;2022-12-07T06:19:16;7.90;99.90
13798;DHT22;6970;51.340;3.240;2022-12-07T06:21:43;8.00;99.90
13798;DHT22;6970;51.340;3.240;2022-12-07T06:24:12;8.00;99.90
13798;DHT22;6970;51.340;3.240;2022-12-07T06:26:39;8.00;99.90
13798;DHT22;6970;51.340;3.240;2022-12-07T06:29:07;8.00;99.90
13798;DHT22;6970;51.340;3.240;2022-12-07T06:31:35;8.00;99.90
13798;DHT22;6970;51.340;3.240;2022-12-07T06:34:05;7.90;99.90
13798;DHT22;6970;51.340;3.240;2022-12-07T06:36:32;7.90;99.90
13798;DHT22;6970;51.340;3.240;2022-12-07T06:38:59;7.90;99.90
13798;DHT22;6970;51.340;3.240;2022-12-07T06:41:27;7.90;99.90
13798;DHT22;6970;51.340;3.240;2022-12-07T06:43:54;7.80;99.90
13798;DHT22;6970;51.340;3.240;2022-12-07T06:46:22;7.80;99.90
13798;DHT22;6970;51.340;3.240;2022-12-07T06:48:50;7.90;99.90
13798;DHT22;6970;51.340;3.240;2022-12-07T06:51:18;7.90;99.90
13798;DHT22;6970;51.340;3.240;2022-12-07T06:53:45;7.90;99.90
13798;DHT22;6970;51.340;3.240;2022-12-07T06:56:13;7.90;99.90
13798;DHT22;6970;51.340;3.240;2022-12-07T06:58:40;7.90;99.90
13798;DHT22;6970;51.340;3.240;2022-12-07T07:01:15;7.90;99.90
13798;DHT22;6970;51.340;3.240;2022-12-07T07:03:45;7.90;99.90
13798;DHT22;6970;51.340;3.240;2022-12-07T07:06:13;8.00;99.90
13798;DHT22;6970;51.340;3.240;2022-12-07T07:08:40;8.00;99.90
13798;DHT22;6970;51.340;3.240;2022-12-07T07:11:08;8.00;99.90
13798;DHT22;6970;51.340;3.240;2022-12-07T07:13:36;8.00;99.90
13798;DHT22;6970;51.340;3.240;2022-12-07T07:16:04;8.00;99.90
13798;DHT22;6970;51.340;3.240;2022-12-07T07:18:31;8.00;99.90
13798;DHT22;6970;51.340;3.240;2022-12-07T07:21:01;8.00;99.90
13798;DHT22;6970;51.340;3.240;2022-12-07T07:23:31;8.00;99.90
13798;DHT22;6970;51.340;3.240;2022-12-07T07:25:59;7.90;99.90
13798;DHT22;6970;51.340;3.240;2022-12-07T07:28:26;8.00;99.90
13798;DHT22;6970;51.340;3.240;2022-12-07T07:30:55;7.90;99.90
13798;DHT22;6970;51.340;3.240;2022-12-07T07:33:26;7.90;99.90
13798;DHT22;6970;51.340;3.240;2022-12-07T07:35:56;8.00;99.90
13798;DHT22;6970;51.340;3.240;2022-12-07T07:38:23;8.00;99.90
13798;DHT22;6970;51.340;3.240;2022-12-07T07:40:50;8.00;99.90
13798;DHT22;6970;51.340;3.240;2022-12-07T07:43:18;8.00;99.90
13798;DHT22;6970;51.340;3.240;2022-12-07T07:45:51;8.00;99.90
13798;DHT22;6970;51.340;3.240;2022-12-07T07:48:20;8.10;99.90
13798;DHT22;6970;51.340;3.240;2022-12-07T07:50:50;8.10;99.90
13798;DHT22;6970;51.340;3.240;2022-12-07T07:53:20;8.10;99.90
13798;DHT22;6970;51.340;3.240;2022-12-07T07:55:51;8.10;99.90
13798;DHT22;6970;51.340;3.240;2022-12-07T07:58:21;8.10;99.90
13798;DHT22;6970;51.340;3.240;2022-12-07T08:00:50;8.10;99.90
13798;DHT22;6970;51.340;3.240;2022-12-07T08:03:20;8.10;99.90
13798;DHT22;6970;51.340;3.240;2022-12-07T08:05:49;8.10;99.90
13798;DHT22;6970;51.340;3.240;2022-12-07T08:08:18;8.10;99.90
13798;DHT22;6970;51.340;3.240;2022-12-07T08:10:45;8.10;99.90
13798;DHT22;6970;51.340;3.240;2022-12-07T08:13:12;8.10;99.90
13798;DHT22;6970;51.340;3.240;2022-12-07T08:15:42;8.10;99.90
13798;DHT22;6970;51.340;3.240;2022-12-07T08:18:13;8.10;99.90
13798;DHT22;6970;51.340;3.240;2022-12-07T08:20:42;8.20;99.90
13798;DHT22;6970;51.340;3.240;2022-12-07T08:23:12;8.30;99.90
13798;DHT22;6970;51.340;3.240;2022-12-07T08:25:39;8.50;99.90
13798;DHT22;6970;51.340;3.240;2022-12-07T08:28:07;9.30;99.90
13798;DHT22;6970;51.340;3.240;2022-12-07T08:30:37;10.10;99.90
13798;DHT22;6970;51.340;3.240;2022-12-07T08:33:08;10.50;99.90
13798;DHT22;6970;51.340;3.240;2022-12-07T08:35:36;10.60;99.90
13798;DHT22;6970;51.340;3.240;2022-12-07T08:38:06;10.90;99.90
13798;DHT22;6970;51.340;3.240;2022-12-07T08:40:34;11.10;99.90
13798;DHT22;6970;51.340;3.240;2022-12-07T08:43:04;11.40;99.90
13798;DHT22;6970;51.340;3.240;2022-12-07T08:45:35;12.20;99.90
13798;DHT22;6970;51.340;3.240;2022-12-07T08:48:09;13.20;99.90
13798;DHT22;6970;51.340;3.240;2022-12-07T08:50:39;14.50;99.90
13798;DHT22;6970;51.340;3.240;2022-12-07T08:53:17;15.90;99.90
13798;DHT22;6970;51.340;3.240;2022-12-07T08:55:48;17.20;99.90
13798;DHT22;6970;51.340;3.240;2022-12-07T08:58:15;18.10;97.30
13798;DHT22;6970;51.340;3.240;2022-12-07T09:00:45;18.10;94.00
13798;DHT22;6970;51.340;3.240;2022-12-07T09:03:16;16.90;93.30
13798;DHT22;6970;51.340;3.240;2022-12-07T09:05:43;15.30;94.70
13798;DHT22;6970;51.340;3.240;2022-12-07T09:08:10;14.00;96.60
13798;DHT22;6970;51.340;3.240;2022-12-07T09:10:38;12.90;98.40
13798;DHT22;6970;51.340;3.240;2022-12-07T09:13:08;12.00;99.90
13798;DHT22;6970;51.340;3.240;2022-12-07T09:15:36;11.50;99.90
13798;DHT22;6970;51.340;3.240;2022-12-07T09:18:04;11.00;99.90
13798;DHT22;6970;51.340;3.240;2022-12-07T09:20:32;10.70;99.90
13798;DHT22;6970;51.340;3.240;2022-12-07T09:23:00;10.60;99.90
13798;DHT22;6970;51.340;3.240;2022-12-07T09:25:34;10.40;99.90
13798;DHT22;6970;51.340;3.240;2022-12-07T09:28:02;10.20;99.90
13798;DHT22;6970;51.340;3.240;2022-12-07T09:30:30;10.10;99.90
13798;DHT22;6970;51.340;3.240;2022-12-07T09:33:00;10.00;99.90
13798;DHT22;6970;51.340;3.240;2022-12-07T09:35:30;9.90;99.90
13798;DHT22;6970;51.340;3.240;2022-12-07T09:37:59;9.60;99.90
13798;DHT22;6970;51.340;3.240;2022-12-07T09:40:29;9.50;99.90
13798;DHT22;6970;51.340;3.240;2022-12-07T09:42:58;9.40;99.90
13798;DHT22;6970;51.340;3.240;2022-12-07T09:45:35;9.30;99.90
13798;DHT22;6970;51.340;3.240;2022-12-07T09:48:04;9.30;99.90
13798;DHT22;6970;51.340;3.240;2022-12-07T09:50:31;9.20;99.90
13798;DHT22;6970;51.340;3.240;2022-12-07T09:53:06;9.20;99.90
13798;DHT22;6970;51.340;3.240;2022-12-07T09:55:36;9.20;99.90
13798;DHT22;6970;51.340;3.240;2022-12-07T09:58:06;9.20;99.90
13798;DHT22;6970;51.340;3.240;2022-12-07T10:00:36;9.30;99.90
13798;DHT22;6970;51.340;3.240;2022-12-07T10:03:05;9.80;99.90
13798;DHT22;6970;51.340;3.240;2022-12-07T10:05:50;10.70;99.90
13798;DHT22;6970;51.340;3.240;2022-12-07T10:08:18;11.10;99.90
13798;DHT22;6970;51.340;3.240;2022-12-07T10:10:48;11.60;99.90
13798;DHT22;6970;51.340;3.240;2022-12-07T10:13:21;12.70;99.90
13798;DHT22;6970;51.340;3.240;2022-12-07T10:15:56;14.20;99.90
13798;DHT22;6970;51.340;3.240;2022-12-07T10:18:34;15.50;99.90
13798;DHT22;6970;51.340;3.240;2022-12-07T10:23:43;17.60;97.20
13798;DHT22;6970;51.340;3.240;2022-12-07T10:26:34;18.50;95.20
13798;DHT22;6970;51.340;3.240;2022-12-07T10:31:43;19.40;92.00
13798;DHT22;6970;51.340;3.240;2022-12-07T10:34:32;18.70;90.90
13798;DHT22;6970;51.340;3.240;2022-12-07T10:39:53;16.70;92.00
13798;DHT22;6970;51.340;3.240;2022-12-07T10:42:27;15.80;93.10
13798;DHT22;6970;51.340;3.240;2022-12-07T10:45:15;14.90;94.10
13798;DHT22;6970;51.340;3.240;2022-12-07T10:47:59;14.00;95.30
13798;DHT22;6970;51.340;3.240;2022-12-07T10:53:48;12.60;98.60
13798;DHT22;6970;51.340;3.240;2022-12-07T11:02:01;11.10;99.90
13798;DHT22;6970;51.340;3.240;2022-12-07T11:07:27;10.50;99.90
13798;DHT22;6970;51.340;3.240;2022-12-07T11:13:05;10.20;99.90
13798;DHT22;6970;51.340;3.240;2022-12-07T11:27:39;10.20;99.90
13798;DHT22;6970;51.340;3.240;2022-12-07T11:30:10;10.50;99.90
13798;DHT22;6970;51.340;3.240;2022-12-07T11:41:36;11.00;99.90
13798;DHT22;6970;51.340;3.240;2022-12-07T11:47:16;11.60;99.90
13798;DHT22;6970;51.340;3.240;2022-12-07T11:52:45;11.50;99.90
13798;DHT22;6970;51.340;3.240;2022-12-07T12:01:04;10.80;99.90
13798;DHT22;6970;51.340;3.240;2022-12-07T12:03:40;10.60;99.90
13798;DHT22;6970;51.340;3.240;2022-12-07T12:06:07;10.40;99.90
13798;DHT22;6970;51.340;3.240;2022-12-07T12:09:09;10.20;99.90
13798;DHT22;6970;51.340;3.240;2022-12-07T12:15:51;9.80;99.90
13798;DHT22;6970;51.340;3.240;2022-12-07T12:21:29;9.70;99.90
13798;DHT22;6970;51.340;3.240;2022-12-07T12:24:26;9.60;99.90
13798;DHT22;6970;51.340;3.240;2022-12-07T12:27:04;9.60;99.90
13798;DHT22;6970;51.340;3.240;2022-12-07T12:29:41;9.70;99.90
13798;DHT22;6970;51.340;3.240;2022-12-07T12:32:40;9.70;99.90
13798;DHT22;6970;51.340;3.240;2022-12-07T12:38:30;9.70;99.90
13798;DHT22;6970;51.340;3.240;2022-12-07T12:41:02;9.80;99.90
13798;DHT22;6970;51.340;3.240;2022-12-07T12:43:43;9.80;99.90
13798;DHT22;6970;51.340;3.240;2022-12-07T12:52:01;10.10;99.90
13798;DHT22;6970;51.340;3.240;2022-12-07T12:57:37;10.20;99.90
13798;DHT22;6970;51.340;3.240;2022-12-07T13:00:23;10.50;99.90
13798;DHT22;6970;51.340;3.240;2022-12-07T13:02:58;10.70;99.90
13798;DHT22;6970;51.340;3.240;2022-12-07T13:05:31;11.00;99.90
13798;DHT22;6970;51.340;3.240;2022-12-07T13:08:10;11.20;99.90
13798;DHT22;6970;51.340;3.240;2022-12-07T13:10:48;11.30;99.90
13798;DHT22;6970;51.340;3.240;2022-12-07T13:15:52;11.50;99.90
13798;DHT22;6970;51.340;3.240;2022-12-07T13:23:59;11.90;99.90
13798;DHT22;6970;51.340;3.240;2022-12-07T13:29:16;12.20;99.90
13798;DHT22;6970;51.340;3.240;2022-12-07T13:32:29;12.30;99.90
13798;DHT22;6970;51.340;3.240;2022-12-07T13:34:57;12.30;99.90
13798;DHT22;6970;51.340;3.240;2022-12-07T13:37:29;12.10;99.90
13798;DHT22;6970;51.340;3.240;2022-12-07T13:40:23;12.00;99.90
13798;DHT22;6970;51.340;3.240;2022-12-07T13:43:27;11.90;99.90
13798;DHT22;6970;51.340;3.240;2022-12-07T13:45:59;11.80;99.90
13798;DHT22;6970;51.340;3.240;2022-12-07T13:48:48;11.80;99.90
13798;DHT22;6970;51.340;3.240;2022-12-07T13:51:27;11.70;99.90
13798;DHT22;6970;51.340;3.240;2022-12-07T13:54:15;11.80;99.90
13798;DHT22;6970;51.340;3.240;2022-12-07T13:56:42;11.90;99.90
13798;DHT22;6970;51.340;3.240;2022-12-07T13:59:22;12.00;99.90
13798;DHT22;6970;51.340;3.240;2022-12-07T14:01:53;12.10;99.90
13798;DHT22;6970;51.340;3.240;2022-12-07T14:04:36;12.20;99.90
13798;DHT22;6970;51.340;3.240;2022-12-07T14:07:28;12.20;99.90
13798;DHT22;6970;51.340;3.240;2022-12-07T14:10:01;12.10;99.90
13798;DHT22;6970;51.340;3.240;2022-12-07T14:12:36;12.00;99.90
13798;DHT22;6970;51.340;3.240;2022-12-07T14:15:03;11.80;99.90
13798;DHT22;6970;51.340;3.240;2022-12-07T14:17:34;11.60;99.90
13798;DHT22;6970;51.340;3.240;2022-12-07T14:20:28;11.30;99.90
13798;DHT22;6970;51.340;3.240;2022-12-07T14:22:55;11.10;99.90
13798;DHT22;6970;51.340;3.240;2022-12-07T14:25:28;10.80;99.90
13798;DHT22;6970;51.340;3.240;2022-12-07T14:28:01;10.70;99.90
13798;DHT22;6970;51.340;3.240;2022-12-07T14:30:33;10.50;99.90
13798;DHT22;6970;51.340;3.240;2022-12-07T14:33:02;10.40;99.90
13798;DHT22;6970;51.340;3.240;2022-12-07T14:35:33;10.30;99.90
13798;DHT22;6970;51.340;3.240;2022-12-07T14:38:03;10.30;99.90
13798;DHT22;6970;51.340;3.240;2022-12-07T14:40:31;10.20;99.90
13798;DHT22;6970;51.340;3.240;2022-12-07T14:43:14;10.10;99.90
13798;DHT22;6970;51.340;3.240;2022-12-07T14:45:43;10.00;99.90
13798;DHT22;6970;51.340;3.240;2022-12-07T14:48:16;10.00;99.90
13798;DHT22;6970;51.340;3.240;2022-12-07T14:51:04;9.90;99.90
13798;DHT22;6970;51.340;3.240;2022-12-07T14:53:53;9.90;99.90
13798;DHT22;6970;51.340;3.240;2022-12-07T14:56:25;9.90;99.90
13798;DHT22;6970;51.340;3.240;2022-12-07T14:58:52;9.80;99.90
13798;DHT22;6970;51.340;3.240;2022-12-07T15:01:22;9.60;99.90
13798;DHT22;6970;51.340;3.240;2022-12-07T15:03:52;9.60;99.90
13798;DHT22;6970;51.340;3.240;2022-12-07T15:06:23;9.50;99.90
13798;DHT22;6970;51.340;3.240;2022-12-07T15:08:53;9.50;99.90
13798;DHT22;6970;51.340;3.240;2022-12-07T15:11:21;9.50;99.90
13798;DHT22;6970;51.340;3.240;2022-12-07T15:13:50;9.40;99.90
13798;DHT22;6970;51.340;3.240;2022-12-07T15:16:40;9.40;99.90
13798;DHT22;6970;51.340;3.240;2022-12-07T15:19:29;9.40;99.90
13798;DHT22;6970;51.340;3.240;2022-12-07T15:21:58;9.30;99.90
13798;DHT22;6970;51.340;3.240;2022-12-07T15:24:29;9.20;99.90
13798;DHT22;6970;51.340;3.240;2022-12-07T15:26:59;9.20;99.90
13798;DHT22;6970;51.340;3.240;2022-12-07T15:29:26;9.20;99.90
13798;DHT22;6970;51.340;3.240;2022-12-07T15:31:54;9.10;99.90
13798;DHT22;6970;51.340;3.240;2022-12-07T15:34:27;9.10;99.90
13798;DHT22;6970;51.340;3.240;2022-12-07T15:37:05;9.00;99.90
13798;DHT22;6970;51.340;3.240;2022-12-07T15:39:35;8.90;99.90
13798;DHT22;6970;51.340;3.240;2022-12-07T15:42:03;8.90;99.90
13798;DHT22;6970;51.340;3.240;2022-12-07T15:44:31;8.80;99.90
13798;DHT22;6970;51.340;3.240;2022-12-07T15:47:16;8.80;99.90
13798;DHT22;6970;51.340;3.240;2022-12-07T15:49:43;8.80;99.90
13798;DHT22;6970;51.340;3.240;2022-12-07T15:52:10;8.70;99.90
13798;DHT22;6970;51.340;3.240;2022-12-07T15:54:37;8.70;99.90
13798;DHT22;6970;51.340;3.240;2022-12-07T15:57:05;8.70;99.90
13798;DHT22;6970;51.340;3.240;2022-12-07T15:59:32;8.60;99.90
13798;DHT22;6970;51.340;3.240;2022-12-07T16:02:01;8.60;99.90
13798;DHT22;6970;51.340;3.240;2022-12-07T16:04:29;8.60;99.90
13798;DHT22;6970;51.340;3.240;2022-12-07T16:06:59;8.50;99.90
13798;DHT22;6970;51.340;3.240;2022-12-07T16:09:29;8.50;99.90
13798;DHT22;6970;51.340;3.240;2022-12-07T16:11:56;8.50;99.90
13798;DHT22;6970;51.340;3.240;2022-12-07T16:14:25;8.50;99.90
13798;DHT22;6970;51.340;3.240;2022-12-07T16:16:58;8.50;99.90
13798;DHT22;6970;51.340;3.240;2022-12-07T16:19:29;8.50;99.90
13798;DHT22;6970;51.340;3.240;2022-12-07T16:21:59;8.50;99.90
13798;DHT22;6970;51.340;3.240;2022-12-07T16:24:29;8.50;99.90
13798;DHT22;6970;51.340;3.240;2022-12-07T16:26:57;8.50;99.90
13798;DHT22;6970;51.340;3.240;2022-12-07T16:29:25;8.40;99.90
13798;DHT22;6970;51.340;3.240;2022-12-07T16:31:54;8.40;99.90
13798;DHT22;6970;51.340;3.240;2022-12-07T16:34:22;8.30;99.90
13798;DHT22;6970;51.340;3.240;2022-12-07T16:36:49;8.30;99.90
13798;DHT22;6970;51.340;3.240;2022-12-07T16:39:33;8.30;99.90
13798;DHT22;6970;51.340;3.240;2022-12-07T16:42:00;8.30;99.90
13798;DHT22;6970;51.340;3.240;2022-12-07T16:44:28;8.20;99.90
13798;DHT22;6970;51.340;3.240;2022-12-07T16:46:58;8.30;99.90
13798;DHT22;6970;51.340;3.240;2022-12-07T16:49:28;8.30;99.90
13798;DHT22;6970;51.340;3.240;2022-12-07T16:51:56;8.30;99.90
13798;DHT22;6970;51.340;3.240;2022-12-07T16:54:45;8.30;99.90
13798;DHT22;6970;51.340;3.240;2022-12-07T16:57:14;8.20;99.90
13798;DHT22;6970;51.340;3.240;2022-12-07T16:59:48;8.30;99.90
13798;DHT22;6970;51.340;3.240;2022-12-07T17:02:15;8.30;99.90
13798;DHT22;6970;51.340;3.240;2022-12-07T17:04:44;8.30;99.90
13798;DHT22;6970;51.340;3.240;2022-12-07T17:07:13;8.30;99.90
13798;DHT22;6970;51.340;3.240;2022-12-07T17:09:40;8.30;99.90
13798;DHT22;6970;51.340;3.240;2022-12-07T17:12:10;8.20;99.90
13798;DHT22;6970;51.340;3.240;2022-12-07T17:14:40;8.20;99.90
13798;DHT22;6970;51.340;3.240;2022-12-07T17:17:28;8.20;99.90
13798;DHT22;6970;51.340;3.240;2022-12-07T17:19:55;8.20;99.90
13798;DHT22;6970;51.340;3.240;2022-12-07T17:22:24;8.10;99.90
13798;DHT22;6970;51.340;3.240;2022-12-07T17:24:52;8.10;99.90
13798;DHT22;6970;51.340;3.240;2022-12-07T17:27:19;8.10;99.90
13798;DHT22;6970;51.340;3.240;2022-12-07T17:29:46;8.10;99.90
13798;DHT22;6970;51.340;3.240;2022-12-07T17:32:19;8.10;99.90
13798;DHT22;6970;51.340;3.240;2022-12-07T17:34:49;8.00;99.90
13798;DHT22;6970;51.340;3.240;2022-12-07T17:37:19;8.00;99.90
13798;DHT22;6970;51.340;3.240;2022-12-07T17:39:46;8.00;99.90
13798;DHT22;6970;51.340;3.240;2022-12-07T17:42:15;8.00;99.90
13798;DHT22;6970;51.340;3.240;2022-12-07T17:45:04;8.00;99.90
13798;DHT22;6970;51.340;3.240;2022-12-07T17:47:32;8.00;99.90
13798;DHT22;6970;51.340;3.240;2022-12-07T17:50:04;7.90;99.90
13798;DHT22;6970;51.340;3.240;2022-12-07T17:52:33;7.90;99.90
13798;DHT22;6970;51.340;3.240;2022-12-07T17:55:26;7.90;99.90
13798;DHT22;6970;51.340;3.240;2022-12-07T17:57:53;7.80;99.90
13798;DHT22;6970;51.340;3.240;2022-12-07T18:00:20;7.80;99.90
13798;DHT22;6970;51.340;3.240;2022-12-07T18:02:49;7.70;99.90
13798;DHT22;6970;51.340;3.240;2022-12-07T18:05:24;7.70;99.90
13798;DHT22;6970;51.340;3.240;2022-12-07T18:07:51;7.70;99.90
13798;DHT22;6970;51.340;3.240;2022-12-07T18:10:19;7.70;99.90
13798;DHT22;6970;51.340;3.240;2022-12-07T18:12:49;7.60;99.90
13798;DHT22;6970;51.340;3.240;2022-12-07T18:15:21;7.60;99.90
13798;DHT22;6970;51.340;3.240;2022-12-07T18:17:50;7.50;99.90